createdAt,value
2023-09-28T00:01:15.982Z,8.68
2023-09-28T00:03:48.649Z,7.82
2023-09-28T00:06:15.994Z,4.07
2023-09-28T00:08:45.494Z,4.47
2023-09-28T00:11:12.681Z,7.93
2023-09-28T00:13:40.877Z,5.35
2023-09-28T00:16:08.726Z,7.90
2023-09-28T00:18:40.098Z,11.68
2023-09-28T00:21:08.052Z,4.20
2023-09-28T00:23:37.805Z,5.40
2023-09-28T00:26:08.477Z,5.82
2023-09-28T00:28:36.635Z,4.05
2023-09-28T00:31:06.423Z,3.05
2023-09-28T00:33:34.709Z,7.78
2023-09-28T00:36:01.832Z,10.10
2023-09-28T00:38:30.097Z,5.05
2023-09-28T00:40:57.408Z,6.78
2023-09-28T00:43:29.682Z,9.32
2023-09-28T00:45:56.917Z,7.80
2023-09-28T00:48:26.248Z,7.30
2023-09-28T00:50:53.928Z,7.95
2023-09-28T00:53:22.712Z,6.55
2023-09-28T00:55:50.392Z,7.57
2023-09-28T00:58:18.687Z,7.72
2023-09-28T01:00:47.549Z,8.05
2023-09-28T01:03:16.162Z,8.52
2023-09-28T01:05:43.544Z,7.40
2023-09-28T01:08:14.320Z,7.80
2023-09-28T01:10:42.468Z,12.98
2023-09-28T01:13:13.679Z,10.25
2023-09-28T01:15:42.843Z,6.65
2023-09-28T01:18:11.688Z,3.85
2023-09-28T01:20:41.381Z,9.88
2023-09-28T01:23:10.335Z,14.73
2023-09-28T01:25:40.018Z,11.40
2023-09-28T01:28:08.522Z,8.95
2023-09-28T01:30:37.364Z,6.25
2023-09-28T01:33:06.516Z,8.02
2023-09-28T01:35:33.627Z,7.72
2023-09-28T01:38:12.376Z,4.22
2023-09-28T01:40:41.045Z,3.40
2023-09-28T01:43:09.855Z,2.13
2023-09-28T01:45:38.064Z,5.07
2023-09-28T01:48:07.418Z,4.60
2023-09-28T01:50:34.599Z,4.50
2023-09-28T01:53:03.681Z,8.32
2023-09-28T01:55:30.996Z,6.00
2023-09-28T01:58:01.292Z,5.93
2023-09-28T02:00:28.435Z,9.57
2023-09-28T02:02:58.080Z,7.40
2023-09-28T02:05:26.762Z,6.32
2023-09-28T02:07:55.020Z,5.55
2023-09-28T02:10:22.324Z,11.43
2023-09-28T02:12:51.973Z,7.32
2023-09-28T02:15:20.635Z,5.05
2023-09-28T02:17:49.443Z,8.80
2023-09-28T02:20:18.264Z,5.18
2023-09-28T02:22:48.151Z,9.95
2023-09-28T02:25:19.324Z,5.25
2023-09-28T02:27:48.356Z,6.43
2023-09-28T02:30:18.365Z,7.70
2023-09-28T02:32:49.280Z,12.13
2023-09-28T02:35:18.311Z,7.43
2023-09-28T02:37:50.338Z,6.63
2023-09-28T02:40:19.260Z,5.53
2023-09-28T02:42:49.597Z,7.75
2023-09-28T02:45:17.276Z,4.10
2023-09-28T02:47:48.438Z,7.10
2023-09-28T02:50:18.793Z,7.80
2023-09-28T02:52:49.086Z,6.25
2023-09-28T02:55:19.684Z,8.68
2023-09-28T02:57:49.343Z,4.97
2023-09-28T03:00:21.250Z,8.30
2023-09-28T03:02:52.976Z,12.63
2023-09-28T03:05:22.283Z,6.03
2023-09-28T03:07:50.989Z,7.70
2023-09-28T03:10:18.376Z,7.78
2023-09-28T03:12:48.460Z,3.25
2023-09-28T03:15:15.990Z,6.20
2023-09-28T03:17:44.700Z,4.40
2023-09-28T03:20:15.989Z,5.68
2023-09-28T03:25:17.925Z,3.33
2023-09-28T03:27:45.858Z,5.60
2023-09-28T03:30:15.650Z,1.52
2023-09-28T03:32:43.401Z,1.33
2023-09-28T03:35:13.916Z,2.80
2023-09-28T03:37:43.173Z,6.00
2023-09-28T03:40:13.241Z,3.78
2023-09-28T03:42:42.830Z,2.20
2023-09-28T03:45:12.671Z,3.85
2023-09-28T03:47:41.906Z,7.88
2023-09-28T03:50:11.853Z,7.28
2023-09-28T03:52:42.813Z,4.20
2023-09-28T03:55:11.949Z,8.45
2023-09-28T03:57:40.603Z,13.93
2023-09-28T04:00:13.713Z,8.55
2023-09-28T04:02:43.310Z,8.50
2023-09-28T04:05:11.963Z,5.97
2023-09-28T04:07:42.343Z,6.10
2023-09-28T04:10:11.643Z,5.35
2023-09-28T04:12:40.070Z,11.32
2023-09-28T04:15:10.860Z,4.78
2023-09-28T04:17:41.975Z,4.53
2023-09-28T04:20:14.481Z,5.13
2023-09-28T04:22:44.184Z,13.05
2023-09-28T04:25:13.064Z,5.22
2023-09-28T04:27:41.246Z,6.80
2023-09-28T04:30:11.326Z,15.32
2023-09-28T04:32:39.631Z,10.23
2023-09-28T04:35:12.260Z,10.48
2023-09-28T04:37:40.877Z,9.63
2023-09-28T04:40:12.500Z,6.03
2023-09-28T04:42:41.119Z,6.15
2023-09-28T04:45:11.397Z,7.53
2023-09-28T04:47:39.714Z,11.52
2023-09-28T04:50:09.684Z,12.38
2023-09-28T04:52:37.922Z,15.65
2023-09-28T04:55:08.580Z,11.90
2023-09-28T04:57:38.395Z,8.18
2023-09-28T05:00:09.979Z,12.20
2023-09-28T05:02:41.155Z,11.50
2023-09-28T05:05:12.302Z,9.23
2023-09-28T05:07:40.629Z,14.10
2023-09-28T05:10:10.129Z,8.00
2023-09-28T05:12:40.527Z,7.90
2023-09-28T05:15:10.623Z,13.13
2023-09-28T05:17:38.821Z,13.75
2023-09-28T05:20:09.240Z,9.02
2023-09-28T05:22:37.478Z,11.43
2023-09-28T05:25:06.644Z,7.20
2023-09-28T05:27:35.140Z,6.35
2023-09-28T05:30:06.006Z,11.40
2023-09-28T05:32:34.250Z,7.25
2023-09-28T05:35:03.783Z,6.57
2023-09-28T05:37:31.920Z,7.88
2023-09-28T05:40:01.751Z,12.77
2023-09-28T05:42:29.893Z,8.55
2023-09-28T05:44:58.135Z,10.95
2023-09-28T05:47:27.699Z,10.95
2023-09-28T05:49:56.081Z,11.32
2023-09-28T05:52:24.343Z,17.38
2023-09-28T05:54:52.643Z,14.63
2023-09-28T05:57:22.322Z,9.15
2023-09-28T05:59:50.448Z,10.45
2023-09-28T06:02:19.515Z,6.90
2023-09-28T06:04:50.534Z,11.15
2023-09-28T06:07:18.654Z,14.75
2023-09-28T06:09:46.784Z,7.47
2023-09-28T06:12:14.901Z,10.18
2023-09-28T06:14:43.091Z,14.30
2023-09-28T06:17:11.276Z,12.35
2023-09-28T06:19:51.504Z,15.35
2023-09-28T06:22:27.310Z,6.72
2023-09-28T06:24:56.265Z,8.20
2023-09-28T06:27:26.646Z,16.38
2023-09-28T06:29:55.133Z,10.05
2023-09-28T06:32:23.956Z,11.27
2023-09-28T06:34:52.384Z,10.95
2023-09-28T06:37:20.651Z,12.65
2023-09-28T06:39:50.177Z,16.40
2023-09-28T06:42:34.479Z,14.82
2023-09-28T06:45:05.395Z,15.15
2023-09-28T06:47:46.517Z,17.45
2023-09-28T06:50:22.008Z,19.60
2023-09-28T06:52:50.303Z,17.08
2023-09-28T06:55:19.962Z,14.88
2023-09-28T06:57:48.110Z,13.20
2023-09-28T07:00:18.467Z,18.90
2023-09-28T07:02:48.908Z,12.70
2023-09-28T07:05:17.873Z,13.95
2023-09-28T07:07:47.227Z,16.55
2023-09-28T07:10:15.618Z,11.90
2023-09-28T07:12:45.116Z,9.38
2023-09-28T07:15:13.683Z,13.75
2023-09-28T07:17:42.052Z,17.38
2023-09-28T07:20:11.138Z,10.45
2023-09-28T07:22:39.558Z,8.75
2023-09-28T07:25:10.503Z,16.63
2023-09-28T07:27:39.151Z,12.32
2023-09-28T07:30:09.845Z,18.20
2023-09-28T07:32:38.255Z,11.10
2023-09-28T07:35:07.934Z,17.67
2023-09-28T07:37:36.196Z,17.27
2023-09-28T07:40:05.729Z,26.33
2023-09-28T07:42:33.847Z,11.43
2023-09-28T07:45:01.969Z,9.02
2023-09-28T07:47:31.687Z,13.40
2023-09-28T07:50:00.344Z,10.35
2023-09-28T07:52:28.881Z,15.65
2023-09-28T07:54:57.858Z,11.57
2023-09-28T07:57:28.131Z,12.38
2023-09-28T07:59:58.038Z,11.98
2023-09-28T08:02:26.249Z,12.27
2023-09-28T08:04:56.765Z,11.48
2023-09-28T08:07:25.678Z,13.30
2023-09-28T08:09:53.896Z,12.45
2023-09-28T08:12:22.000Z,12.52
2023-09-28T08:14:50.149Z,13.38
2023-09-28T08:17:18.395Z,10.38
2023-09-28T08:19:46.953Z,14.50
2023-09-28T08:22:16.604Z,10.85
2023-09-28T08:24:44.896Z,26.52
2023-09-28T08:27:13.342Z,16.15
2023-09-28T08:29:41.491Z,14.50
2023-09-28T08:32:09.816Z,18.08
2023-09-28T08:34:39.195Z,16.08
2023-09-28T08:37:07.995Z,22.27
2023-09-28T08:39:38.200Z,16.83
2023-09-28T08:42:12.821Z,15.75
2023-09-28T08:44:42.728Z,17.17
2023-09-28T08:47:17.825Z,17.02
2023-09-28T08:49:49.793Z,11.18
2023-09-28T08:52:19.297Z,12.68
2023-09-28T08:54:49.730Z,18.35
2023-09-28T08:57:18.497Z,19.17
2023-09-28T08:59:47.629Z,14.48
2023-09-28T09:02:17.197Z,10.57
2023-09-28T09:04:46.684Z,13.40
2023-09-28T09:07:15.750Z,18.55
2023-09-28T09:09:47.631Z,15.55
2023-09-28T09:12:18.004Z,17.05
2023-09-28T09:14:46.162Z,16.60
2023-09-28T09:17:14.293Z,17.02
2023-09-28T09:19:44.375Z,12.05
2023-09-28T09:22:26.492Z,13.70
2023-09-28T09:24:58.098Z,11.07
2023-09-28T09:27:32.201Z,14.80
2023-09-28T09:30:00.886Z,23.25
2023-09-28T09:32:30.044Z,18.20
2023-09-28T09:34:58.303Z,15.23
2023-09-28T09:37:26.795Z,15.23
2023-09-28T09:39:55.262Z,15.90
2023-09-28T09:42:31.059Z,20.77
2023-09-28T09:44:59.118Z,18.70
2023-09-28T09:47:27.755Z,16.05
2023-09-28T09:49:57.702Z,17.40
2023-09-28T09:52:28.198Z,16.95
2023-09-28T09:54:56.339Z,13.90
2023-09-28T09:57:28.465Z,12.68
2023-09-28T10:00:00.494Z,20.00
2023-09-28T10:02:29.941Z,13.35
2023-09-28T10:05:00.576Z,13.20
2023-09-28T10:07:46.620Z,15.97
2023-09-28T10:10:16.907Z,17.13
2023-09-28T10:12:45.127Z,12.82
2023-09-28T10:15:14.915Z,14.00
2023-09-28T10:17:44.421Z,13.80
2023-09-28T10:20:14.918Z,17.42
2023-09-28T10:22:43.663Z,16.77
2023-09-28T10:25:13.920Z,15.32
2023-09-28T10:27:45.886Z,13.15
2023-09-28T10:30:23.518Z,18.65
2023-09-28T10:32:53.810Z,18.77
2023-09-28T10:35:30.155Z,13.05
2023-09-28T10:38:20.882Z,19.13
2023-09-28T10:41:05.251Z,13.93
2023-09-28T10:43:36.079Z,16.73
2023-09-28T10:46:06.570Z,17.73
2023-09-28T10:48:41.018Z,17.53
2023-09-28T10:51:13.774Z,19.08
2023-09-28T10:53:42.780Z,18.60
2023-09-28T10:56:12.134Z,15.27
2023-09-28T10:58:42.314Z,13.65
2023-09-28T11:01:12.289Z,14.75
2023-09-28T11:03:41.649Z,25.27
2023-09-28T11:06:11.510Z,21.48
2023-09-28T11:08:41.158Z,18.65
2023-09-28T11:11:09.473Z,18.75
2023-09-28T11:13:37.997Z,19.73
2023-09-28T11:16:06.508Z,22.33
2023-09-28T11:18:37.649Z,25.42
2023-09-28T11:21:05.951Z,19.27
2023-09-28T11:23:34.117Z,21.35
2023-09-28T11:26:02.588Z,25.55
2023-09-28T11:28:31.233Z,17.55
2023-09-28T11:31:09.311Z,22.73
2023-09-28T11:33:40.228Z,17.75
2023-09-28T11:36:09.472Z,16.33
2023-09-28T11:38:37.611Z,21.33
2023-09-28T11:41:06.824Z,28.70
2023-09-28T11:43:36.323Z,15.50
2023-09-28T11:46:05.227Z,21.52
2023-09-28T11:48:34.110Z,17.85
2023-09-28T11:51:05.330Z,19.70
2023-09-28T11:53:33.662Z,21.42
2023-09-28T11:56:03.359Z,18.95
2023-09-28T11:58:34.797Z,17.48
2023-09-28T12:01:04.176Z,18.63
2023-09-28T12:03:32.393Z,21.50
2023-09-28T12:06:00.736Z,18.67
2023-09-28T12:08:31.323Z,18.23
2023-09-28T12:11:00.712Z,16.47
2023-09-28T12:13:28.955Z,16.70
2023-09-28T12:15:57.809Z,15.38
2023-09-28T12:18:26.089Z,19.75
2023-09-28T12:20:54.328Z,12.77
2023-09-28T12:23:22.502Z,13.77
2023-09-28T12:25:52.207Z,14.65
2023-09-28T12:28:20.474Z,21.00
2023-09-28T12:30:48.659Z,14.65
2023-09-28T12:33:17.011Z,24.52
2023-09-28T12:35:45.196Z,15.57
2023-09-28T12:38:13.582Z,24.08
2023-09-28T12:40:41.781Z,20.30
2023-09-28T12:43:12.455Z,26.65
2023-09-28T12:45:40.613Z,18.63
2023-09-28T12:48:09.727Z,21.08
2023-09-28T12:50:38.539Z,25.35
2023-09-28T12:53:06.791Z,23.05
2023-09-28T12:55:36.156Z,18.00
2023-09-28T12:58:05.069Z,17.05
2023-09-28T13:00:34.723Z,24.75
2023-09-28T13:03:08.499Z,11.23
2023-09-28T13:05:38.880Z,16.60
2023-09-28T13:08:08.805Z,13.93
2023-09-28T13:10:37.119Z,17.08
2023-09-28T13:13:07.162Z,18.50
2023-09-28T13:15:36.744Z,23.67
2023-09-28T13:18:08.673Z,14.93
2023-09-28T13:20:40.458Z,15.10
2023-09-28T13:23:09.074Z,21.77
2023-09-28T13:25:37.316Z,24.50
2023-09-28T13:28:09.197Z,20.00
2023-09-28T13:30:40.417Z,18.88
2023-09-28T13:35:39.115Z,17.42
2023-09-28T13:38:09.528Z,16.88
2023-09-28T13:40:37.914Z,17.03
2023-09-28T13:43:07.179Z,17.27
2023-09-28T13:45:35.932Z,12.55
2023-09-28T13:48:06.920Z,18.67
2023-09-28T13:50:37.239Z,16.00
2023-09-28T13:53:06.562Z,13.82
2023-09-28T13:55:35.376Z,21.80
2023-09-28T13:58:03.774Z,8.93
2023-09-28T14:00:35.995Z,15.88
2023-09-28T14:03:07.074Z,18.85
2023-09-28T14:05:36.491Z,15.95
2023-09-28T14:08:05.109Z,11.98
2023-09-28T14:10:33.654Z,21.38
2023-09-28T14:13:02.666Z,24.77
2023-09-28T14:15:31.502Z,21.90
2023-09-28T14:17:59.703Z,15.32
2023-09-28T14:20:30.095Z,14.63
2023-09-28T14:22:58.289Z,14.07
2023-09-28T14:25:26.420Z,22.15
2023-09-28T14:27:55.437Z,18.20
2023-09-28T14:30:23.788Z,17.30
2023-09-28T14:32:51.981Z,17.30
2023-09-28T14:35:20.438Z,15.98
2023-09-28T14:37:50.004Z,17.92
2023-09-28T14:40:18.711Z,14.75
2023-09-28T14:42:47.429Z,20.08
2023-09-28T14:45:16.002Z,15.95
2023-09-28T14:47:44.833Z,18.30
2023-09-28T14:50:14.972Z,12.70
2023-09-28T14:52:43.533Z,14.10
2023-09-28T14:55:13.231Z,21.42
2023-09-28T14:57:41.530Z,17.80
2023-09-28T15:00:13.890Z,14.27
2023-09-28T15:02:44.668Z,15.50
2023-09-28T15:05:13.137Z,14.93
2023-09-28T15:07:41.356Z,13.38
2023-09-28T15:10:11.005Z,12.90
2023-09-28T15:12:41.104Z,11.40
2023-09-28T15:15:09.619Z,10.23
2023-09-28T15:17:38.008Z,12.70
2023-09-28T15:20:10.941Z,10.55
2023-09-28T15:22:39.553Z,16.10
2023-09-28T15:25:08.216Z,13.98
2023-09-28T15:27:37.005Z,13.23
2023-09-28T15:30:08.055Z,10.00
2023-09-28T15:32:36.504Z,11.32
2023-09-28T15:35:05.023Z,16.65
2023-09-28T15:37:33.262Z,17.02
2023-09-28T15:40:05.012Z,12.25
2023-09-28T15:42:33.489Z,14.98
2023-09-28T15:45:01.907Z,17.50
2023-09-28T15:47:32.695Z,17.67
2023-09-28T15:50:04.936Z,18.67
2023-09-28T15:52:33.526Z,17.77
2023-09-28T15:55:01.910Z,18.85
2023-09-28T15:57:31.464Z,26.17
2023-09-28T15:59:59.821Z,14.85
2023-09-28T16:02:28.084Z,15.13
2023-09-28T16:04:58.139Z,21.08
2023-09-28T16:07:26.285Z,17.20
2023-09-28T16:09:54.703Z,15.07
2023-09-28T16:12:23.860Z,12.85
2023-09-28T16:14:52.994Z,21.60
2023-09-28T16:17:22.512Z,20.52
2023-09-28T16:19:50.739Z,16.60
2023-09-28T16:22:21.987Z,16.83
2023-09-28T16:24:50.101Z,13.48
2023-09-28T16:27:18.348Z,16.00
2023-09-28T16:29:46.539Z,16.33
2023-09-28T16:32:14.732Z,16.48
2023-09-28T16:34:43.404Z,11.88
2023-09-28T16:37:11.496Z,14.70
2023-09-28T16:39:41.033Z,17.10
2023-09-28T16:42:09.204Z,13.93
2023-09-28T16:44:37.418Z,10.65
2023-09-28T16:47:05.924Z,16.90
2023-09-28T16:49:34.327Z,11.38
2023-09-28T16:52:02.497Z,11.05
2023-09-28T16:54:30.615Z,12.25
2023-09-28T16:57:00.233Z,10.45
2023-09-28T16:59:28.428Z,10.93
2023-09-28T17:01:56.740Z,11.52
2023-09-28T17:04:25.037Z,15.77
2023-09-28T17:06:53.289Z,11.75
2023-09-28T17:09:21.362Z,13.68
2023-09-28T17:11:49.712Z,11.35
2023-09-28T17:14:19.276Z,17.27
2023-09-28T17:16:47.497Z,12.43
2023-09-28T17:19:15.795Z,10.02
2023-09-28T17:21:44.295Z,10.05
2023-09-28T17:24:12.499Z,7.05
2023-09-28T17:26:40.881Z,11.40
2023-09-28T17:29:09.221Z,11.88
2023-09-28T17:31:38.725Z,8.38
2023-09-28T17:34:06.852Z,6.47
2023-09-28T17:36:34.935Z,8.85
2023-09-28T17:39:03.044Z,8.05
2023-09-28T17:41:31.215Z,7.15
2023-09-28T17:43:59.328Z,10.27
2023-09-28T17:46:27.498Z,10.63
2023-09-28T17:48:57.190Z,9.60
2023-09-28T17:51:25.799Z,18.98
2023-09-28T17:53:54.231Z,15.00
2023-09-28T17:56:22.685Z,17.63
2023-09-28T17:58:52.591Z,24.08
2023-09-28T18:01:20.845Z,11.63
2023-09-28T18:03:49.134Z,7.82
2023-09-28T18:06:18.692Z,9.57
2023-09-28T18:08:48.013Z,10.90
2023-09-28T18:11:16.332Z,14.80
2023-09-28T18:13:44.450Z,10.52
2023-09-28T18:16:12.653Z,11.25
2023-09-28T18:18:41.028Z,11.77
2023-09-28T18:21:09.253Z,6.47
2023-09-28T18:23:38.990Z,12.27
2023-09-28T18:26:07.285Z,7.95
2023-09-28T18:28:37.812Z,9.55
2023-09-28T18:31:06.467Z,8.77
2023-09-28T18:33:35.886Z,7.03
2023-09-28T18:36:04.265Z,9.10
2023-09-28T18:38:32.640Z,6.93
2023-09-28T18:41:02.162Z,8.45
2023-09-28T18:43:30.293Z,7.28
2023-09-28T18:45:58.478Z,13.95
2023-09-28T18:48:26.918Z,7.28
2023-09-28T18:50:55.034Z,32.25
2023-09-28T18:53:24.463Z,22.60
2023-09-28T18:58:24.056Z,9.20
2023-09-28T19:00:52.771Z,11.13
2023-09-28T19:03:21.002Z,19.67
2023-09-28T19:05:49.379Z,20.73
2023-09-28T19:08:17.977Z,17.42
2023-09-28T19:10:46.166Z,22.48
2023-09-28T19:13:15.042Z,33.92
2023-09-28T19:15:44.571Z,35.75
2023-09-28T19:18:12.765Z,42.47
2023-09-28T19:20:41.650Z,24.45
2023-09-28T19:23:09.926Z,30.83
2023-09-28T19:25:38.792Z,32.90
2023-09-28T19:28:07.601Z,27.40
2023-09-28T19:30:35.791Z,25.75
2023-09-28T19:33:05.883Z,24.52
2023-09-28T19:35:34.563Z,19.42
2023-09-28T19:38:03.603Z,16.77
2023-09-28T19:40:31.681Z,19.52
2023-09-28T19:42:59.908Z,20.40
2023-09-28T19:45:28.235Z,17.13
2023-09-28T19:47:56.501Z,15.23
2023-09-28T19:50:26.281Z,13.20
2023-09-28T19:52:54.426Z,15.25
2023-09-28T19:55:22.581Z,17.83
2023-09-28T19:57:51.357Z,21.20
2023-09-28T20:00:19.625Z,16.63
2023-09-28T20:02:47.810Z,21.83
2023-09-28T20:05:17.774Z,22.00
2023-09-28T20:07:47.456Z,22.98
2023-09-28T20:10:16.129Z,22.92
2023-09-28T20:12:44.466Z,26.63
2023-09-28T20:15:12.968Z,24.60
2023-09-28T20:17:41.469Z,23.65
2023-09-28T20:20:11.389Z,22.65
2023-09-28T20:25:13.448Z,22.88
2023-09-28T20:27:41.573Z,27.30
2023-09-28T20:30:10.516Z,26.42
2023-09-28T20:32:38.675Z,27.48
2023-09-28T20:35:07.765Z,26.75
2023-09-28T20:37:35.910Z,24.45
2023-09-28T20:40:04.076Z,26.50
2023-09-28T20:42:33.582Z,28.95
2023-09-28T20:45:02.007Z,32.58
2023-09-28T20:47:30.921Z,30.55
2023-09-28T20:50:01.092Z,27.67
2023-09-28T20:52:29.494Z,25.05
2023-09-28T20:54:57.686Z,28.23
2023-09-28T20:57:25.784Z,25.23
2023-09-28T20:59:57.388Z,26.85
2023-09-28T21:02:26.633Z,20.00
2023-09-28T21:04:54.814Z,21.67
2023-09-28T21:07:22.985Z,24.10
2023-09-28T21:09:51.117Z,22.25
2023-09-28T21:12:19.233Z,25.02
2023-09-28T21:14:47.388Z,19.60
2023-09-28T21:17:16.939Z,21.45
2023-09-28T21:19:45.186Z,21.42
2023-09-28T21:22:13.312Z,19.85
2023-09-28T21:24:41.476Z,22.15
2023-09-28T21:27:09.614Z,20.30
2023-09-28T21:29:37.793Z,22.08
2023-09-28T21:32:06.221Z,26.17
2023-09-28T21:34:35.730Z,24.33
2023-09-28T21:37:03.908Z,24.58
2023-09-28T21:39:32.042Z,19.20
2023-09-28T21:42:00.368Z,20.15
2023-09-28T21:44:28.630Z,20.83
2023-09-28T21:46:56.789Z,21.27
2023-09-28T21:49:24.870Z,26.13
2023-09-28T21:51:54.643Z,22.63
2023-09-28T21:54:22.762Z,24.60
2023-09-28T21:56:50.848Z,24.15
2023-09-28T21:59:19.080Z,25.30
2023-09-28T22:01:48.299Z,24.63
2023-09-28T22:04:16.515Z,24.85
2023-09-28T22:06:44.706Z,25.60
2023-09-28T22:09:14.404Z,26.65
2023-09-28T22:11:42.496Z,28.52
2023-09-28T22:14:11.412Z,29.80
2023-09-28T22:16:40.143Z,32.13
2023-09-28T22:19:08.331Z,24.88
2023-09-28T22:21:36.428Z,22.73
2023-09-28T22:24:05.041Z,31.35
2023-09-28T22:26:34.625Z,21.95
2023-09-28T22:29:03.106Z,23.08
2023-09-28T22:31:31.247Z,24.90
2023-09-28T22:33:59.547Z,21.27
2023-09-28T22:36:27.775Z,25.75
2023-09-28T22:38:56.086Z,18.65
2023-09-28T22:41:24.443Z,21.92
2023-09-28T22:43:54.276Z,18.15
2023-09-28T22:46:22.447Z,21.27
2023-09-28T22:48:50.830Z,24.58
2023-09-28T22:51:18.993Z,24.17
2023-09-28T22:53:47.275Z,21.30
2023-09-28T22:56:15.396Z,25.88
2023-09-28T22:58:43.568Z,17.23
2023-09-28T23:01:13.190Z,21.92
2023-09-28T23:03:41.504Z,22.45
2023-09-28T23:06:09.708Z,22.23
2023-09-28T23:08:37.836Z,20.08
2023-09-28T23:11:06.352Z,22.55
2023-09-28T23:13:36.872Z,25.92
2023-09-28T23:16:06.843Z,20.40
2023-09-28T23:18:36.731Z,22.15
2023-09-28T23:21:07.122Z,29.80
2023-09-28T23:23:36.267Z,20.45
2023-09-28T23:26:07.158Z,28.40
2023-09-28T23:28:35.807Z,21.65
2023-09-28T23:31:04.804Z,25.50
2023-09-28T23:33:33.195Z,20.98
2023-09-28T23:36:05.971Z,24.02
2023-09-28T23:38:34.298Z,20.27
2023-09-28T23:41:05.992Z,20.10
2023-09-28T23:43:35.008Z,24.92
2023-09-28T23:46:04.269Z,23.25
2023-09-28T23:48:34.642Z,19.92
2023-09-28T23:51:06.905Z,22.85
2023-09-28T23:53:35.431Z,24.55
2023-09-28T23:56:05.003Z,17.85
2023-09-28T23:58:33.110Z,20.92
